Terminal Aerodrome Forecast
Issued by NWS Charleston, WV

Current Version | Previous Version | Text Only | Print | Product List | Glossary Off
Versions: 1 2 3 4 5 6 7 8 9 10 11 12 13 14 15 16 17 18 19 20 21 22

000
FTUS41 KRLX 172300 RRA
TAFHTS
TAF
KHTS 172341Z 1800/1824 VRB03KT P6SM BKN050
     FM180500 00000KT 6SM BR SCT090
     FM180700 00000KT 2SM BR SCT001 BKN080
     FM180800 00000KT 1/2SM FG SCT001
      TEMPO 1808/1809 2SM BR BKN070
     FM181400 VRB03KT 5SM BR BKN250
     FM181500 03004KT P6SM BKN250
     FM181600 03004KT P6SM SCT030=

USA.gov is the U.S. government's official web portal to all federal, state and local government web resources and services.